sensor_id;sensor_type;location;lat;lon;timestamp;pressure;altitude;pressure_sealevel;temperature;humidity
57763;BME280;43592;42.524;12.052;2023-05-29T00:01:19;96494.88;;;12.75;100.00
57763;BME280;43592;42.524;12.052;2023-05-29T00:03:46;96486.44;;;12.76;100.00
57763;BME280;43592;42.524;12.052;2023-05-29T00:06:12;96479.09;;;12.73;100.00
57763;BME280;43592;42.524;12.052;2023-05-29T00:08:38;96477.56;;;12.72;100.00
57763;BME280;43592;42.524;12.052;2023-05-29T00:11:04;96483.28;;;12.71;100.00
57763;BME280;43592;42.524;12.052;2023-05-29T00:13:30;96479.78;;;12.67;100.00
57763;BME280;43592;42.524;12.052;2023-05-29T00:15:55;96479.34;;;12.65;100.00
57763;BME280;43592;42.524;12.052;2023-05-29T00:18:21;96474.34;;;12.63;100.00
57763;BME280;43592;42.524;12.052;2023-05-29T00:20:47;96468.59;;;12.65;100.00
57763;BME280;43592;42.524;12.052;2023-05-29T00:23:12;96474.41;;;12.67;100.00
57763;BME280;43592;42.524;12.052;2023-05-29T00:25:38;96472.84;;;12.66;100.00
57763;BME280;43592;42.524;12.052;2023-05-29T00:28:06;96462.84;;;12.63;100.00
57763;BME280;43592;42.524;12.052;2023-05-29T00:30:32;96466.19;;;12.59;100.00
57763;BME280;43592;42.524;12.052;2023-05-29T00:32:57;96468.81;;;12.56;100.00
57763;BME280;43592;42.524;12.052;2023-05-29T00:35:24;96468.81;;;12.56;100.00
57763;BME280;43592;42.524;12.052;2023-05-29T00:37:49;96467.28;;;12.55;100.00
57763;BME280;43592;42.524;12.052;2023-05-29T00:40:15;96468.06;;;12.55;100.00
57763;BME280;43592;42.524;12.052;2023-05-29T00:42:41;96458.88;;;12.56;100.00
57763;BME280;43592;42.524;12.052;2023-05-29T00:45:06;96466.56;;;12.58;100.00
57763;BME280;43592;42.524;12.052;2023-05-29T00:47:32;96475.47;;;12.62;100.00
57763;BME280;43592;42.524;12.052;2023-05-29T00:49:57;96464.00;;;12.65;100.00
57763;BME280;43592;42.524;12.052;2023-05-29T00:52:24;96466.00;;;12.68;100.00
57763;BME280;43592;42.524;12.052;2023-05-29T00:54:50;96458.34;;;12.70;100.00
57763;BME280;43592;42.524;12.052;2023-05-29T00:57:17;96456.09;;;12.72;100.00
57763;BME280;43592;42.524;12.052;2023-05-29T00:59:42;96451.91;;;12.75;100.00
57763;BME280;43592;42.524;12.052;2023-05-29T01:02:09;96464.97;;;12.76;100.00
57763;BME280;43592;42.524;12.052;2023-05-29T01:04:35;96457.72;;;12.77;100.00
57763;BME280;43592;42.524;12.052;2023-05-29T01:07:01;96461.59;;;12.79;100.00
57763;BME280;43592;42.524;12.052;2023-05-29T01:09:30;96456.63;;;12.81;100.00
57763;BME280;43592;42.524;12.052;2023-05-29T01:14:45;96449.22;;;12.75;100.00
57763;BME280;43592;42.524;12.052;2023-05-29T01:22:44;96456.19;;;12.56;100.00
57763;BME280;43592;42.524;12.052;2023-05-29T01:25:17;96454.22;;;12.53;100.00
57763;BME280;43592;42.524;12.052;2023-05-29T01:27:44;96459.94;;;12.52;100.00
57763;BME280;43592;42.524;12.052;2023-05-29T01:30:12;96449.56;;;12.50;100.00
57763;BME280;43592;42.524;12.052;2023-05-29T01:32:40;96451.47;;;12.50;100.00
57763;BME280;43592;42.524;12.052;2023-05-29T01:35:06;96450.31;;;12.51;100.00
57763;BME280;43592;42.524;12.052;2023-05-29T01:37:32;96455.69;;;12.51;100.00
57763;BME280;43592;42.524;12.052;2023-05-29T01:39:57;96453.38;;;12.49;100.00
57763;BME280;43592;42.524;12.052;2023-05-29T01:42:23;96453.38;;;12.49;100.00
57763;BME280;43592;42.524;12.052;2023-05-29T01:44:50;96450.63;;;12.46;100.00
57763;BME280;43592;42.524;12.052;2023-05-29T01:47:15;96463.63;;;12.44;100.00
57763;BME280;43592;42.524;12.052;2023-05-29T01:49:42;96456.28;;;12.41;100.00
57763;BME280;43592;42.524;12.052;2023-05-29T01:52:09;96463.47;;;12.36;100.00
57763;BME280;43592;42.524;12.052;2023-05-29T01:54:34;96459.91;;;12.29;100.00
57763;BME280;43592;42.524;12.052;2023-05-29T01:57:00;96465.13;;;12.22;100.00
57763;BME280;43592;42.524;12.052;2023-05-29T01:59:27;96460.81;;;12.17;100.00
57763;BME280;43592;42.524;12.052;2023-05-29T02:01:53;96467.25;;;12.12;100.00
57763;BME280;43592;42.524;12.052;2023-05-29T02:04:19;96469.44;;;12.07;100.00
57763;BME280;43592;42.524;12.052;2023-05-29T02:06:45;96477.03;;;12.05;100.00
57763;BME280;43592;42.524;12.052;2023-05-29T02:09:10;96474.34;;;12.05;100.00
57763;BME280;43592;42.524;12.052;2023-05-29T02:11:36;96464.13;;;12.10;100.00
57763;BME280;43592;42.524;12.052;2023-05-29T02:14:01;96461.09;;;12.12;100.00
57763;BME280;43592;42.524;12.052;2023-05-29T02:16:28;96452.69;;;12.13;100.00
57763;BME280;43592;42.524;12.052;2023-05-29T02:18:54;96446.97;;;12.15;100.00
57763;BME280;43592;42.524;12.052;2023-05-29T02:21:19;96447.38;;;12.17;100.00
57763;BME280;43592;42.524;12.052;2023-05-29T02:23:45;96443.66;;;12.22;100.00
57763;BME280;43592;42.524;12.052;2023-05-29T02:26:11;96445.34;;;12.30;100.00
57763;BME280;43592;42.524;12.052;2023-05-29T02:28:37;96447.03;;;12.38;100.00
57763;BME280;43592;42.524;12.052;2023-05-29T02:31:02;96439.91;;;12.46;100.00
57763;BME280;43592;42.524;12.052;2023-05-29T02:33:28;96448.06;;;12.53;100.00
57763;BME280;43592;42.524;12.052;2023-05-29T02:35:54;96446.66;;;12.59;100.00
57763;BME280;43592;42.524;12.052;2023-05-29T02:38:20;96441.41;;;12.66;100.00
57763;BME280;43592;42.524;12.052;2023-05-29T02:40:46;96450.38;;;12.74;100.00
57763;BME280;43592;42.524;12.052;2023-05-29T02:43:12;96450.06;;;12.79;100.00
57763;BME280;43592;42.524;12.052;2023-05-29T02:45:38;96441.72;;;12.84;100.00
57763;BME280;43592;42.524;12.052;2023-05-29T02:48:03;96446.41;;;12.91;100.00
57763;BME280;43592;42.524;12.052;2023-05-29T02:50:29;96442.31;;;12.97;100.00
57763;BME280;43592;42.524;12.052;2023-05-29T02:52:54;96442.78;;;13.02;100.00
57763;BME280;43592;42.524;12.052;2023-05-29T02:55:20;96437.91;;;13.08;100.00
57763;BME280;43592;42.524;12.052;2023-05-29T02:57:45;96446.44;;;13.14;100.00
57763;BME280;43592;42.524;12.052;2023-05-29T03:00:14;96448.03;;;13.18;100.00
57763;BME280;43592;42.524;12.052;2023-05-29T03:02:40;96450.78;;;13.22;100.00
57763;BME280;43592;42.524;12.052;2023-05-29T03:05:05;96445.53;;;13.29;100.00
57763;BME280;43592;42.524;12.052;2023-05-29T03:07:31;96455.97;;;13.34;100.00
57763;BME280;43592;42.524;12.052;2023-05-29T03:09:57;96451.06;;;13.40;100.00
57763;BME280;43592;42.524;12.052;2023-05-29T03:12:22;96447.28;;;13.44;100.00
57763;BME280;43592;42.524;12.052;2023-05-29T03:14:48;96447.75;;;13.50;100.00
57763;BME280;43592;42.524;12.052;2023-05-29T03:17:13;96444.75;;;13.55;100.00
57763;BME280;43592;42.524;12.052;2023-05-29T03:19:39;96442.91;;;13.59;100.00
57763;BME280;43592;42.524;12.052;2023-05-29T03:22:04;96448.31;;;13.63;100.00
57763;BME280;43592;42.524;12.052;2023-05-29T03:24:30;96444.13;;;13.65;100.00
57763;BME280;43592;42.524;12.052;2023-05-29T03:26:55;96448.78;;;13.68;100.00
57763;BME280;43592;42.524;12.052;2023-05-29T03:29:21;96448.78;;;13.68;100.00
57763;BME280;43592;42.524;12.052;2023-05-29T03:31:47;96450.72;;;13.68;100.00
57763;BME280;43592;42.524;12.052;2023-05-29T03:34:12;96440.72;;;13.68;100.00
57763;BME280;43592;42.524;12.052;2023-05-29T03:36:38;96447.63;;;13.69;100.00
57763;BME280;43592;42.524;12.052;2023-05-29T03:39:04;96450.31;;;13.69;100.00
57763;BME280;43592;42.524;12.052;2023-05-29T03:41:30;96443.81;;;13.70;100.00
57763;BME280;43592;42.524;12.052;2023-05-29T03:43:55;96436.16;;;13.73;100.00
57763;BME280;43592;42.524;12.052;2023-05-29T03:46:21;96437.00;;;13.77;100.00
57763;BME280;43592;42.524;12.052;2023-05-29T03:48:46;96436.69;;;13.82;100.00
57763;BME280;43592;42.524;12.052;2023-05-29T03:51:11;96439.44;;;13.89;100.00
57763;BME280;43592;42.524;12.052;2023-05-29T03:53:37;96433.41;;;13.96;100.00
57763;BME280;43592;42.524;12.052;2023-05-29T03:56:03;96434.63;;;14.02;100.00
57763;BME280;43592;42.524;12.052;2023-05-29T03:58:28;96440.44;;;14.07;100.00
57763;BME280;43592;42.524;12.052;2023-05-29T04:00:54;96432.41;;;14.11;100.00
57763;BME280;43592;42.524;12.052;2023-05-29T04:03:19;96433.63;;;14.17;100.00
57763;BME280;43592;42.524;12.052;2023-05-29T04:05:45;96428.69;;;14.23;100.00
57763;BME280;43592;42.524;12.052;2023-05-29T04:08:10;96428.38;;;14.28;100.00
57763;BME280;43592;42.524;12.052;2023-05-29T04:10:38;96433.81;;;14.35;100.00
57763;BME280;43592;42.524;12.052;2023-05-29T04:13:04;96436.59;;;14.38;100.00
57763;BME280;43592;42.524;12.052;2023-05-29T04:15:29;96437.38;;;14.43;100.00
57763;BME280;43592;42.524;12.052;2023-05-29T04:17:55;96434.72;;;14.46;100.00
57763;BME280;43592;42.524;12.052;2023-05-29T04:20:21;96435.91;;;14.49;100.00
57763;BME280;43592;42.524;12.052;2023-05-29T04:22:47;96431.31;;;14.49;100.00
57763;BME280;43592;42.524;12.052;2023-05-29T04:25:12;96441.38;;;14.52;100.00
57763;BME280;43592;42.524;12.052;2023-05-29T04:27:38;96438.28;;;14.54;100.00
57763;BME280;43592;42.524;12.052;2023-05-29T04:30:07;96439.47;;;14.56;100.00
57763;BME280;43592;42.524;12.052;2023-05-29T04:32:33;96442.59;;;14.58;100.00
57763;BME280;43592;42.524;12.052;2023-05-29T04:34:59;96442.97;;;14.60;100.00
57763;BME280;43592;42.524;12.052;2023-05-29T04:37:31;96440.31;;;14.64;100.00
57763;BME280;43592;42.524;12.052;2023-05-29T04:40:03;96429.94;;;14.66;100.00
57763;BME280;43592;42.524;12.052;2023-05-29T04:42:31;96448.84;;;14.70;100.00
57763;BME280;43592;42.524;12.052;2023-05-29T04:44:59;96438.88;;;14.74;100.00
57763;BME280;43592;42.524;12.052;2023-05-29T04:47:25;96447.78;;;14.78;100.00
57763;BME280;43592;42.524;12.052;2023-05-29T04:49:51;96442.81;;;14.84;100.00
57763;BME280;43592;42.524;12.052;2023-05-29T04:52:17;96437.88;;;14.89;100.00
57763;BME280;43592;42.524;12.052;2023-05-29T04:54:42;96439.84;;;14.96;100.00
57763;BME280;43592;42.524;12.052;2023-05-29T04:57:08;96443.72;;;14.98;100.00
57763;BME280;43592;42.524;12.052;2023-05-29T04:59:34;96445.69;;;15.05;100.00
57763;BME280;43592;42.524;12.052;2023-05-29T05:02:00;96454.59;;;15.09;100.00
57763;BME280;43592;42.524;12.052;2023-05-29T05:04:25;96451.16;;;15.16;100.00
57763;BME280;43592;42.524;12.052;2023-05-29T05:06:51;96459.31;;;15.23;100.00
57763;BME280;43592;42.524;12.052;2023-05-29T05:09:16;96453.56;;;15.28;100.00
57763;BME280;43592;42.524;12.052;2023-05-29T05:11:42;96462.09;;;15.34;100.00
57763;BME280;43592;42.524;12.052;2023-05-29T05:14:08;96458.69;;;15.40;100.00
57763;BME280;43592;42.524;12.052;2023-05-29T05:16:33;96461.06;;;15.49;100.00
57763;BME280;43592;42.524;12.052;2023-05-29T05:18:59;96464.16;;;15.55;100.00
57763;BME280;43592;42.524;12.052;2023-05-29T05:21:24;96462.25;;;15.59;100.00
57763;BME280;43592;42.524;12.052;2023-05-29T05:23:50;96451.13;;;15.64;100.00
57763;BME280;43592;42.524;12.052;2023-05-29T05:26:16;96456.59;;;15.71;100.00
57763;BME280;43592;42.524;12.052;2023-05-29T05:28:41;96452.00;;;15.79;100.00
57763;BME280;43592;42.524;12.052;2023-05-29T05:31:08;96455.13;;;15.84;100.00
57763;BME280;43592;42.524;12.052;2023-05-29T05:33:34;96452.47;;;15.91;100.00
57763;BME280;43592;42.524;12.052;2023-05-29T05:35:59;96452.13;;;16.00;100.00
57763;BME280;43592;42.524;12.052;2023-05-29T05:38:25;96451.78;;;16.09;100.00
57763;BME280;43592;42.524;12.052;2023-05-29T05:40:51;96449.88;;;16.16;100.00
57763;BME280;43592;42.524;12.052;2023-05-29T05:43:16;96454.16;;;16.28;100.00
57763;BME280;43592;42.524;12.052;2023-05-29T05:45:42;96451.09;;;16.37;100.00
57763;BME280;43592;42.524;12.052;2023-05-29T05:48:08;96460.03;;;16.48;100.00
57763;BME280;43592;42.524;12.052;2023-05-29T05:50:34;96454.25;;;16.60;100.00
57763;BME280;43592;42.524;12.052;2023-05-29T05:53:00;96446.19;;;16.75;100.00
57763;BME280;43592;42.524;12.052;2023-05-29T05:55:25;96445.06;;;16.94;100.00
57763;BME280;43592;42.524;12.052;2023-05-29T05:57:53;96447.78;;;17.22;100.00
57763;BME280;43592;42.524;12.052;2023-05-29T06:00:19;96451.19;;;17.77;100.00
57763;BME280;43592;42.524;12.052;2023-05-29T06:02:44;96448.25;;;18.45;99.67
57763;BME280;43592;42.524;12.052;2023-05-29T06:05:11;96450.50;;;19.23;95.07
57763;BME280;43592;42.524;12.052;2023-05-29T06:07:37;96447.94;;;19.92;88.59
57763;BME280;43592;42.524;12.052;2023-05-29T06:10:03;96459.66;;;20.50;83.08
57763;BME280;43592;42.524;12.052;2023-05-29T06:12:29;96465.91;;;21.05;81.31
57763;BME280;43592;42.524;12.052;2023-05-29T06:14:54;96453.53;;;21.51;80.09
57763;BME280;43592;42.524;12.052;2023-05-29T06:17:20;96460.03;;;22.01;77.02
57763;BME280;43592;42.524;12.052;2023-05-29T06:19:47;96448.75;;;22.42;75.53
57763;BME280;43592;42.524;12.052;2023-05-29T06:22:16;96453.69;;;22.83;72.30
57763;BME280;43592;42.524;12.052;2023-05-29T06:24:42;96447.94;;;23.14;71.41
57763;BME280;43592;42.524;12.052;2023-05-29T06:27:08;96452.53;;;23.50;68.87
57763;BME280;43592;42.524;12.052;2023-05-29T06:29:33;96445.59;;;23.62;67.82
57763;BME280;43592;42.524;12.052;2023-05-29T06:31:59;96442.38;;;23.67;66.13
57763;BME280;43592;42.524;12.052;2023-05-29T06:34:25;96444.50;;;23.75;66.84
57763;BME280;43592;42.524;12.052;2023-05-29T06:36:51;96450.44;;;23.87;66.44
57763;BME280;43592;42.524;12.052;2023-05-29T06:39:16;96446.13;;;24.02;67.62
57763;BME280;43592;42.524;12.052;2023-05-29T06:41:43;96450.22;;;24.23;66.75
57763;BME280;43592;42.524;12.052;2023-05-29T06:44:09;96447.72;;;24.58;66.15
57763;BME280;43592;42.524;12.052;2023-05-29T06:46:34;96441.94;;;24.94;63.56
57763;BME280;43592;42.524;12.052;2023-05-29T06:49:00;96433.59;;;25.23;64.21
57763;BME280;43592;42.524;12.052;2023-05-29T06:51:25;96443.28;;;25.50;63.12
57763;BME280;43592;42.524;12.052;2023-05-29T06:53:50;96428.41;;;25.73;59.08
57763;BME280;43592;42.524;12.052;2023-05-29T06:56:16;96438.91;;;25.87;61.24
57763;BME280;43592;42.524;12.052;2023-05-29T06:58:41;96445.09;;;26.01;61.49
57763;BME280;43592;42.524;12.052;2023-05-29T07:01:07;96447.31;;;26.15;59.50
57763;BME280;43592;42.524;12.052;2023-05-29T07:03:32;96441.59;;;26.22;58.52
57763;BME280;43592;42.524;12.052;2023-05-29T07:05:58;96455.88;;;26.39;58.27
57763;BME280;43592;42.524;12.052;2023-05-29T07:08:24;96454.78;;;26.36;57.25
57763;BME280;43592;42.524;12.052;2023-05-29T07:10:50;96455.19;;;26.26;55.28
57763;BME280;43592;42.524;12.052;2023-05-29T07:13:16;96453.13;;;26.39;58.58
57763;BME280;43592;42.524;12.052;2023-05-29T07:15:43;96458.28;;;26.37;58.32
57763;BME280;43592;42.524;12.052;2023-05-29T07:18:08;96457.78;;;26.51;58.85
57763;BME280;43592;42.524;12.052;2023-05-29T07:20:34;96461.09;;;26.68;58.65
57763;BME280;43592;42.524;12.052;2023-05-29T07:22:59;96453.28;;;26.98;56.48
57763;BME280;43592;42.524;12.052;2023-05-29T07:25:25;96454.78;;;27.30;56.92
57763;BME280;43592;42.524;12.052;2023-05-29T07:27:51;96452.97;;;27.36;54.64
57763;BME280;43592;42.524;12.052;2023-05-29T07:30:17;96459.97;;;27.37;54.99
57763;BME280;43592;42.524;12.052;2023-05-29T07:32:43;96462.59;;;27.50;54.56
57763;BME280;43592;42.524;12.052;2023-05-29T07:35:08;96449.63;;;27.60;52.70
57763;BME280;43592;42.524;12.052;2023-05-29T07:37:34;96458.19;;;27.71;53.69
57763;BME280;43592;42.524;12.052;2023-05-29T07:40:00;96453.00;;;27.73;54.47
57763;BME280;43592;42.524;12.052;2023-05-29T07:42:25;96455.16;;;27.69;51.98
57763;BME280;43592;42.524;12.052;2023-05-29T07:44:50;96449.19;;;27.61;50.68
57763;BME280;43592;42.524;12.052;2023-05-29T07:47:16;96444.44;;;27.52;53.43
57763;BME280;43592;42.524;12.052;2023-05-29T07:49:41;96444.13;;;27.60;53.10
57763;BME280;43592;42.524;12.052;2023-05-29T07:52:07;96448.00;;;27.90;51.18
57763;BME280;43592;42.524;12.052;2023-05-29T07:54:32;96453.06;;;27.91;52.49
57763;BME280;43592;42.524;12.052;2023-05-29T07:57:01;96446.94;;;27.87;51.77
57763;BME280;43592;42.524;12.052;2023-05-29T07:59:35;96444.16;;;28.24;48.68
57763;BME280;43592;42.524;12.052;2023-05-29T08:02:00;96442.16;;;28.25;49.38
57763;BME280;43592;42.524;12.052;2023-05-29T08:04:28;96456.97;;;28.55;50.63
57763;BME280;43592;42.524;12.052;2023-05-29T08:06:53;96453.72;;;28.65;49.99
57763;BME280;43592;42.524;12.052;2023-05-29T08:09:19;96457.94;;;28.85;49.08
57763;BME280;43592;42.524;12.052;2023-05-29T08:11:44;96462.28;;;29.01;49.02
57763;BME280;43592;42.524;12.052;2023-05-29T08:14:11;96454.13;;;28.82;48.48
57763;BME280;43592;42.524;12.052;2023-05-29T08:16:37;96450.56;;;28.91;47.22
57763;BME280;43592;42.524;12.052;2023-05-29T08:19:02;96450.91;;;28.84;47.84
57763;BME280;43592;42.524;12.052;2023-05-29T08:21:29;96453.50;;;28.78;48.37
57763;BME280;43592;42.524;12.052;2023-05-29T08:23:57;96456.13;;;28.82;48.34
57763;BME280;43592;42.524;12.052;2023-05-29T08:26:22;96457.88;;;29.03;46.73
57763;BME280;43592;42.524;12.052;2023-05-29T08:28:48;96459.25;;;29.32;47.24
57763;BME280;43592;42.524;12.052;2023-05-29T08:31:13;96456.97;;;29.54;45.83
57763;BME280;43592;42.524;12.052;2023-05-29T08:33:39;96457.47;;;29.53;45.45
57763;BME280;43592;42.524;12.052;2023-05-29T08:36:05;96468.19;;;29.51;45.46
57763;BME280;43592;42.524;12.052;2023-05-29T08:38:30;96465.84;;;29.35;46.44
57763;BME280;43592;42.524;12.052;2023-05-29T08:40:56;96465.41;;;29.27;46.01
57763;BME280;43592;42.524;12.052;2023-05-29T08:43:23;96467.38;;;29.36;46.18
57763;BME280;43592;42.524;12.052;2023-05-29T08:45:53;96473.41;;;29.25;46.81
57763;BME280;43592;42.524;12.052;2023-05-29T08:48:18;96473.53;;;29.21;46.52
57763;BME280;43592;42.524;12.052;2023-05-29T08:50:44;96475.41;;;29.24;47.62
57763;BME280;43592;42.524;12.052;2023-05-29T08:53:14;96470.19;;;29.50;45.81
57763;BME280;43592;42.524;12.052;2023-05-29T08:55:41;96466.56;;;29.44;43.02
57763;BME280;43592;42.524;12.052;2023-05-29T08:58:06;96466.44;;;29.63;43.67
57763;BME280;43592;42.524;12.052;2023-05-29T09:00:32;96467.50;;;29.65;45.19
57763;BME280;43592;42.524;12.052;2023-05-29T09:02:58;96469.81;;;29.67;43.67
57763;BME280;43592;42.524;12.052;2023-05-29T09:05:25;96467.69;;;29.52;42.30
57763;BME280;43592;42.524;12.052;2023-05-29T09:07:53;96474.28;;;29.55;43.98
57763;BME280;43592;42.524;12.052;2023-05-29T09:10:18;96462.31;;;29.58;42.11
57763;BME280;43592;42.524;12.052;2023-05-29T09:12:45;96470.22;;;29.41;44.13
57763;BME280;43592;42.524;12.052;2023-05-29T09:15:18;96473.09;;;29.47;44.59
57763;BME280;43592;42.524;12.052;2023-05-29T09:17:44;96467.47;;;29.17;43.34
57763;BME280;43592;42.524;12.052;2023-05-29T09:20:16;96464.31;;;29.34;43.82
57763;BME280;43592;42.524;12.052;2023-05-29T09:22:46;96469.22;;;29.29;44.14
57763;BME280;43592;42.524;12.052;2023-05-29T09:25:17;96472.50;;;29.19;44.06
57763;BME280;43592;42.524;12.052;2023-05-29T09:27:46;96477.63;;;28.93;44.80
57763;BME280;43592;42.524;12.052;2023-05-29T09:30:12;96471.09;;;28.81;46.45
57763;BME280;43592;42.524;12.052;2023-05-29T09:32:56;96475.22;;;28.85;46.32
57763;BME280;43592;42.524;12.052;2023-05-29T09:35:21;96475.34;;;28.91;46.59
57763;BME280;43592;42.524;12.052;2023-05-29T09:37:49;96475.91;;;29.04;45.33
57763;BME280;43592;42.524;12.052;2023-05-29T09:40:15;96476.06;;;29.10;47.67
57763;BME280;43592;42.524;12.052;2023-05-29T09:42:40;96475.41;;;29.15;45.62
57763;BME280;43592;42.524;12.052;2023-05-29T09:45:06;96476.78;;;29.20;44.53
57763;BME280;43592;42.524;12.052;2023-05-29T09:47:35;96475.47;;;29.06;46.37
57763;BME280;43592;42.524;12.052;2023-05-29T09:50:01;96471.38;;;28.92;45.81
57763;BME280;43592;42.524;12.052;2023-05-29T09:52:26;96466.22;;;28.76;45.09
57763;BME280;43592;42.524;12.052;2023-05-29T09:54:55;96468.28;;;28.48;44.61
57763;BME280;43592;42.524;12.052;2023-05-29T09:57:22;96468.28;;;28.29;46.92
57763;BME280;43592;42.524;12.052;2023-05-29T09:59:49;96468.75;;;28.28;45.58
57763;BME280;43592;42.524;12.052;2023-05-29T10:02:17;96473.63;;;28.33;45.45
57763;BME280;43592;42.524;12.052;2023-05-29T10:04:43;96474.25;;;28.18;44.70
57763;BME280;43592;42.524;12.052;2023-05-29T10:07:18;96477.16;;;28.24;43.92
57763;BME280;43592;42.524;12.052;2023-05-29T10:09:46;96466.50;;;28.17;44.08
57763;BME280;43592;42.524;12.052;2023-05-29T10:12:14;96463.28;;;28.09;44.31
57763;BME280;43592;42.524;12.052;2023-05-29T10:14:41;96463.13;;;28.04;47.11
57763;BME280;43592;42.524;12.052;2023-05-29T10:17:07;96468.94;;;28.15;50.37
57763;BME280;43592;42.524;12.052;2023-05-29T10:19:36;96459.44;;;28.34;49.27
57763;BME280;43592;42.524;12.052;2023-05-29T10:22:02;96465.66;;;28.62;48.18
57763;BME280;43592;42.524;12.052;2023-05-29T10:24:29;96463.47;;;28.76;45.83
57763;BME280;43592;42.524;12.052;2023-05-29T10:26:56;96467.41;;;28.84;44.08
57763;BME280;43592;42.524;12.052;2023-05-29T10:29:26;96463.31;;;28.70;45.33
57763;BME280;43592;42.524;12.052;2023-05-29T10:34:44;96460.34;;;28.92;46.29
57763;BME280;43592;42.524;12.052;2023-05-29T10:37:32;96460.00;;;29.08;48.06
57763;BME280;43592;42.524;12.052;2023-05-29T10:40:07;96465.75;;;29.20;47.06
57763;BME280;43592;42.524;12.052;2023-05-29T10:42:44;96462.63;;;29.36;48.57
57763;BME280;43592;42.524;12.052;2023-05-29T10:45:10;96462.25;;;29.43;46.85
57763;BME280;43592;42.524;12.052;2023-05-29T10:47:38;96462.78;;;29.57;45.14
57763;BME280;43592;42.524;12.052;2023-05-29T10:50:04;96458.09;;;29.48;45.18
57763;BME280;43592;42.524;12.052;2023-05-29T10:52:33;96462.75;;;29.42;45.27
57763;BME280;43592;42.524;12.052;2023-05-29T10:55:01;96465.13;;;29.49;44.70
57763;BME280;43592;42.524;12.052;2023-05-29T10:57:29;96464.84;;;29.47;46.83
57763;BME280;43592;42.524;12.052;2023-05-29T11:00:04;96460.06;;;29.23;45.69
57763;BME280;43592;42.524;12.052;2023-05-29T11:02:40;96456.50;;;29.32;45.77
57763;BME280;43592;42.524;12.052;2023-05-29T11:05:19;96456.28;;;29.45;45.04
57763;BME280;43592;42.524;12.052;2023-05-29T11:07:52;96454.72;;;29.53;45.00
57763;BME280;43592;42.524;12.052;2023-05-29T11:10:40;96460.34;;;29.59;46.38
57763;BME280;43592;42.524;12.052;2023-05-29T11:13:04;96455.25;;;29.66;46.79
57763;BME280;43592;42.524;12.052;2023-05-29T11:15:32;96460.78;;;29.57;45.17
57763;BME280;43592;42.524;12.052;2023-05-29T11:18:05;96458.34;;;29.59;46.58
57763;BME280;43592;42.524;12.052;2023-05-29T11:25:25;96455.16;;;29.51;47.70
57763;BME280;43592;42.524;12.052;2023-05-29T11:27:50;96447.25;;;29.44;47.41
57763;BME280;43592;42.524;12.052;2023-05-29T11:30:20;96453.00;;;29.31;48.58
57763;BME280;43592;42.524;12.052;2023-05-29T11:32:47;96445.84;;;29.25;48.51
57763;BME280;43592;42.524;12.052;2023-05-29T11:35:15;96452.94;;;29.17;48.82
57763;BME280;43592;42.524;12.052;2023-05-29T11:37:44;96432.34;;;29.27;47.58
57763;BME280;43592;42.524;12.052;2023-05-29T11:40:12;96437.22;;;29.56;48.24
57763;BME280;43592;42.524;12.052;2023-05-29T11:42:41;96436.75;;;29.82;45.64
57763;BME280;43592;42.524;12.052;2023-05-29T11:47:51;96432.22;;;30.08;46.44
57763;BME280;43592;42.524;12.052;2023-05-29T11:50:20;96426.50;;;29.97;46.85
57763;BME280;43592;42.524;12.052;2023-05-29T11:52:46;96426.72;;;30.08;46.03
57763;BME280;43592;42.524;12.052;2023-05-29T11:55:11;96421.41;;;30.19;46.74
57763;BME280;43592;42.524;12.052;2023-05-29T11:57:37;96417.72;;;30.23;45.34
57763;BME280;43592;42.524;12.052;2023-05-29T12:00:02;96418.28;;;30.27;45.94
57763;BME280;43592;42.524;12.052;2023-05-29T12:02:33;96409.81;;;30.30;45.93
57763;BME280;43592;42.524;12.052;2023-05-29T12:05:01;96412.56;;;30.30;47.20
57763;BME280;43592;42.524;12.052;2023-05-29T12:07:27;96405.66;;;30.35;47.06
57763;BME280;43592;42.524;12.052;2023-05-29T12:09:53;96404.50;;;30.41;47.95
57763;BME280;43592;42.524;12.052;2023-05-29T12:12:23;96408.84;;;30.48;47.34
57763;BME280;43592;42.524;12.052;2023-05-29T12:14:51;96405.06;;;30.31;45.81
57763;BME280;43592;42.524;12.052;2023-05-29T12:17:19;96410.59;;;29.77;48.29
57763;BME280;43592;42.524;12.052;2023-05-29T12:19:45;96406.91;;;29.08;48.78
57763;BME280;43592;42.524;12.052;2023-05-29T12:22:11;96404.25;;;28.29;49.06
57763;BME280;43592;42.524;12.052;2023-05-29T12:24:37;96398.03;;;27.54;50.37
57763;BME280;43592;42.524;12.052;2023-05-29T12:27:05;96399.72;;;26.93;52.04
57763;BME280;43592;42.524;12.052;2023-05-29T12:29:33;96393.81;;;26.32;51.17
57763;BME280;43592;42.524;12.052;2023-05-29T12:31:58;96387.47;;;25.91;52.49
57763;BME280;43592;42.524;12.052;2023-05-29T12:34:24;96391.44;;;25.90;54.61
57763;BME280;43592;42.524;12.052;2023-05-29T12:36:50;96380.44;;;26.12;54.67
57763;BME280;43592;42.524;12.052;2023-05-29T12:39:15;96375.09;;;26.40;51.72
57763;BME280;43592;42.524;12.052;2023-05-29T12:41:41;96368.69;;;26.65;52.60
57763;BME280;43592;42.524;12.052;2023-05-29T12:44:07;96367.38;;;26.88;52.04
57763;BME280;43592;42.524;12.052;2023-05-29T12:49:15;96358.81;;;27.26;47.85
57763;BME280;43592;42.524;12.052;2023-05-29T12:51:41;96369.63;;;27.30;48.70
57763;BME280;43592;42.524;12.052;2023-05-29T12:54:09;96361.06;;;27.37;49.75
57763;BME280;43592;42.524;12.052;2023-05-29T12:56:35;96363.69;;;27.50;48.79
57763;BME280;43592;42.524;12.052;2023-05-29T12:59:00;96357.25;;;27.62;49.36
57763;BME280;43592;42.524;12.052;2023-05-29T13:01:26;96370.69;;;27.79;49.32
57763;BME280;43592;42.524;12.052;2023-05-29T13:03:51;96352.25;;;27.79;46.70